TOURFACTS.DK  
Stats and Facts from Tour de France.

Tour de France 2019 starts in 348 days
  Riders   Stages   Teams   Summits   Yearly  


 
Search by year

After 2018 - Stage 14:
 15000 starters.
  5163 different riders.
  639 teams.
  2246 stages.
  456 restdays.
  441957.60 km.
  5678 abandonnees.


Top 3
GC
Christopher Froome86:20:55
Rigoberto Urán86:21:49
Romain Bardet86:23:15
Climb
Warren Barguil169 pt.
Primoz Roglic80 pt.
Thomas De Gendt64 pt.
Sprint
Michael Matthews359 pt.
André Greipel234 pt.
Edvald Boasson Hagen220 pt.
Youth
Simon Yates86:27:09
Louis Meintjes86:29:15
Emanuel Buchmann86:54:16
Facts from Tour de France 1990
  |   Stages.  |   Stage winners.  |   Days in yellow  |   Average speed.  |   Route.  |   Teams.  |   All riders.  |   Rookies.  |  

  |   Withdrawls.  |   GC.  |   Polka  |   Green  |   White  |   Summits. (In tour)  |   Miscellaneous.  |  

Stage 14 on July 15th. 1990
         Owning:    Claudio Chiappucci    
Pick a stage:  Pro 1 2 3 4 5 6 7 8 9 10 11 12 13 14 15 16 17 18 19 20 21
From: Le Puy-en-Velay    To: MillauDist:205.00 km.
Cat: 4Côte de MontbonnetFRAThierry Claveyrolat
5 points
 
Cat: 3Côte de VachellerieFRAFrédéric Brun
10 points
 
Cat: 4Côte de EsplantasFRAJean-Claude Colotti
5 points
 
Cat: 4Côte de GardillesFRAJean-Claude Colotti
5 points
 
Cat: 2Côte de ChoizalFRAJean-Claude Bagot
20 points
 
Cat: 1Monta du CadeESPMarino Lejarreta
30 points
 

Average speed for all riders in stage:  38,631 km./hr.
    Place:Name:Team:Time:Km/h:
ESPMarino LejarretaESPO.N.C.E.05:12:03  +  00:00:00=39,417 
ESPMiguel IndurainESPBanesto05:12:27  +  00:00:24=39,366 
SUIGianni BugnoITAChateau d'Ax05:12:28  +  00:00:25=39,364 
4 ESPRaúl AlcaláNLDPDM-Concorde05:12:36  +  00:00:33=39,347 
5 USAGreg LeMondFRAZ-Peugeot05:12:37  +  00:00:34=39,345 
6 NEDErik BreukinkNLDPDM-Concorde05:12:37  +  00:00:34=39,345 
7 ESPPedro DelgadoESPBanesto05:12:37  +  00:00:34=39,345 
8 BELClaude CriquielionBELLotto-Superclub05:12:37  +  00:00:34=39,345 
9 COLWilliam PalacioCOLRyalcao-Postobon05:12:37  +  00:00:34=39,345 
10 FRAGilles DelionCHEHelvetia-La Suisse05:12:37  +  00:00:34=39,345 
11 COLFabio Parra PintoESPKelme-Ibexpress05:12:37  +  00:00:34=39,345 
12 ITARoberto ContiITAAriostea05:12:45  +  00:00:42=39,329 
13 ITAClaudio ChiappucciITACarrera Jeans-Vagabond05:12:50  +  00:00:47=39,318 
14 FRAFabrice PhilipotFRACastorama-Raleigh05:12:50  +  00:00:47=39,318 
15 ESPMiguel Angel MartinezESPO.N.C.E.05:12:50  +  00:00:47=39,318 
16 FRAPascal LinoFRAR.M.O.-Mavic-Liberia05:12:50  +  00:00:47=39,318 
17 COLNelson RodriguezESPKelme-Ibexpress05:12:58  +  00:00:55=39,301 
18 COLReynel MontoyaCOLRyalcao-Postobon05:13:03  +  00:01:00=39,291 
19 ESPPello RuizESPO.N.C.E.05:13:22  +  00:01:19=39,251 
20 ITAAlessandro GiannelliITACarrera Jeans-Vagabond05:13:28  +  00:01:25=39,239 
21 USAAndy HampstenUSA7-Eleven-Hoonved05:13:28  +  00:01:25=39,239 
22 FRALaurent BiondiBELHistor-Sigma05:13:32  +  00:01:29=39,230 
23 FRAThierry ClaveyrolatFRAR.M.O.-Mavic-Liberia05:13:32  +  00:01:29=39,230 
24 ESPEduardo ChozasESPO.N.C.E.05:13:34  +  00:01:31=39,226 
25 IRLStephen RocheBELHistor-Sigma05:13:34  +  00:01:31=39,226 
26 COLPablo HernandezCOLRyalcao-Postobon05:13:34  +  00:01:31=39,226 
27 FRARonan PensecFRAZ-Peugeot05:13:34  +  00:01:31=39,226 
28 ESPVicente RidauraFRASeur05:13:34  +  00:01:31=39,226 
29 NORAtle KvålsvollFRAZ-Peugeot05:13:34  +  00:01:31=39,226 
30 SCORobert MillarFRAZ-Peugeot05:13:34  +  00:01:31=39,226 
31 BELJohan BruyneelBELLotto-Superclub05:13:52  +  00:01:49=39,189 
32 URSPiotr UgrumovITAAlfa Lum05:13:52  +  00:01:49=39,189 
33 FRAJerôme SimonFRAZ-Peugeot05:13:52  +  00:01:49=39,189 
34 COLGerardo MoncadaCOLRyalcao-Postobon05:13:52  +  00:01:49=39,189 
35 COLOscar VargasCOLRyalcao-Postobon05:13:52  +  00:01:49=39,189 
36 COLAbelardo RondonESPBanesto05:14:04  +  00:02:01=39,164 
37 FRAPascal SimonFRACastorama-Raleigh05:14:14  +  00:02:11=39,143 
38 DENBjarne RiisFRACastorama-Raleigh05:14:14  +  00:02:11=39,143 
39 BELMichel DerniesCHEWeinmann-La Suisse-S.M.M. Uste..05:14:31  +  00:02:28=39,108 
40 SUIBeat BreuCHEWeinmann-La Suisse-S.M.M. Uste..05:14:31  +  00:02:28=39,108 
41 FRAPascal LanceNLDToshiba05:14:31  +  00:02:28=39,108 
42 ESPJesus RodriguezESPBanesto05:14:31  +  00:02:28=39,108 
43 FRALuc LeblancFRACastorama-Raleigh05:14:31  +  00:02:28=39,108 
44 FRAJean-Claude BagotFRAR.M.O.-Mavic-Liberia05:14:31  +  00:02:28=39,108 
45 FRABruno CornilletFRAZ-Peugeot05:14:31  +  00:02:28=39,108 
46 URSDimitri KonychevITAAlfa Lum05:14:40  +  00:02:37=39,089 
47 NEDSteven RooksNLDPanasonic-Sportlife05:14:50  +  00:02:47=39,068 
48 SUIJörg MüllerNLDTVM05:14:56  +  00:02:53=39,056 
49 AUSStephen HodgeESPO.N.C.E.05:14:56  +  00:02:53=39,056 
50 ITAMarcello SiboniITAAriostea05:14:56  +  00:02:53=39,056 
51 IRLSean KellyNLDPDM-Concorde05:15:13  +  00:03:10=39,021 
52 CANSteve BauerUSA7-Eleven-Hoonved05:15:13  +  00:03:10=39,021 
53 DENBrian HolmBELHistor-Sigma05:15:13  +  00:03:10=39,021 
54 ESPAnselmo FuerteESPO.N.C.E.05:15:42  +  00:03:39=38,961 
55 COLAlvaro MejiaCOLRyalcao-Postobon05:15:42  +  00:03:39=38,961 
56 FRAPhilippe LouviotNLDToshiba05:15:46  +  00:03:43=38,953 
57 FRAFrançois LemarchandFRAZ-Peugeot05:15:46  +  00:03:43=38,953 
58 BELPatrick VerschuerenBELLotto-Superclub05:15:46  +  00:03:43=38,953 
59 COLNéstor MoraESPKelme-Ibexpress05:15:46  +  00:03:43=38,953 
60 ITARoberto GusmeroliITAChateau d'Ax05:15:47  +  00:03:44=38,951 
61 DENSøren LilholtBELHistor-Sigma05:15:55  +  00:03:52=38,934 
62 ESPJuan MartinezESPBanesto05:15:55  +  00:03:52=38,934 
63 ESPJosé UreaFRASeur05:16:05  +  00:04:02=38,914 
64 FRALaurent PillonBELHistor-Sigma05:16:05  +  00:04:02=38,914 
65 BELRudy DhaenensNLDPDM-Concorde05:16:05  +  00:04:02=38,914 
66 FRAChristian ChaubetNLDToshiba05:16:16  +  00:04:13=38,891 
67 FRADominique ArnaudESPBanesto05:16:19  +  00:04:16=38,885 
68 COLCarlos JaramilloCOLRyalcao-Postobon05:16:19  +  00:04:16=38,885 
69 NEDGerrit De VriesNLDBuckler05:16:55  +  00:04:52=38,811 
70 NEDHenri MandersCHEHelvetia-La Suisse05:16:55  +  00:04:52=38,811 
71 FRADenis RouxNLDToshiba05:17:04  +  00:05:01=38,793 
72 BELPatrick RobeetCHEWeinmann-La Suisse-S.M.M. Uste..05:17:21  +  00:05:18=38,758 
73 ESPAntonio DiasESPKelme-Ibexpress05:17:38  +  00:05:35=38,724 
74 ENGPhil AndersonNLDTVM05:17:45  +  00:05:42=38,710 
75 BELEric Van LanckerNLDPanasonic-Sportlife05:17:56  +  00:05:53=38,687 
76 FRAÉric BoyerFRAZ-Peugeot05:17:56  +  00:05:53=38,687 
77 BELGuy NulensNLDPanasonic-Sportlife05:17:56  +  00:05:53=38,687 
78 PORJosé FerreiraFRASeur05:17:56  +  00:05:53=38,687 
79 BELMarc SergeantNLDPanasonic-Sportlife05:17:56  +  00:05:53=38,687 
80 URSDjamolidine AbduzhaparovITAAlfa Lum05:17:56  +  00:05:53=38,687 
81 FRAJean-Claude ColottiFRAR.M.O.-Mavic-Liberia05:17:56  +  00:05:53=38,687 
82 NORDag Otto LauritzenUSA7-Eleven-Hoonved05:17:56  +  00:05:53=38,687 
83 URSViatcheslav EkimovNLDPanasonic-Sportlife05:17:56  +  00:05:53=38,687 
84 BELJos HaexBELLotto-Superclub05:17:56  +  00:05:53=38,687 
85 SUIThomas WegmüllerCHEWeinmann-La Suisse-S.M.M. Uste..05:17:56  +  00:05:53=38,687 
86 SUIKurt SteinmannCHEWeinmann-La Suisse-S.M.M. Uste..05:17:56  +  00:05:53=38,687 
87 URSAlexandre TrubineITAAlfa Lum05:17:56  +  00:05:53=38,687 
88 FRAThierry LaurentFRAR.M.O.-Mavic-Liberia05:17:56  +  00:05:53=38,687 
89 ITAValerio PivaITAAriostea05:17:56  +  00:05:53=38,687 
90 SUIHans-Rüdi MärkiCHEHelvetia-La Suisse05:17:56  +  00:05:53=38,687 
91 NEDMartin SchalkersNLDTVM05:17:56  +  00:05:53=38,687 
92 DENTony RomingerITAChateau d'Ax05:17:56  +  00:05:53=38,687 
93 DDRUwe RaabNLDPDM-Concorde05:17:56  +  00:05:53=38,687 
94 ITADavide CassaniITAAriostea05:17:56  +  00:05:53=38,687 
95 DDRMario KummerITAChateau d'Ax05:17:56  +  00:05:53=38,687 
96 ITAAlberto VolpiITAChateau d'Ax05:17:56  +  00:05:53=38,687 
97 SUINiki RüttimannCHEHelvetia-La Suisse05:17:56  +  00:05:53=38,687 
98 ITABruno CenghialtaITAAriostea05:17:56  +  00:05:53=38,687 
99 PORAcacio da SilvaITACarrera Jeans-Vagabond05:17:56  +  00:05:53=38,687 
100 COLWilliam PulidoCOLRyalcao-Postobon05:17:56  +  00:05:53=38,687 
101 FRARoland Le ClercNLDToshiba05:17:56  +  00:05:53=38,687 
102 ESPLuis LukinESPBanesto05:17:56  +  00:05:53=38,687 
103 ITAAlberto ElliITAAriostea05:17:56  +  00:05:53=38,687 
104 FRAGilbert Duclos-LassalleFRAZ-Peugeot05:17:56  +  00:05:53=38,687 
105 FRACharly MottetFRAR.M.O.-Mavic-Liberia05:17:56  +  00:05:53=38,687 
106 USAAndrew BishopUSA7-Eleven-Hoonved05:17:56  +  00:05:53=38,687 
107 ESPPablo MorenoFRASeur05:17:56  +  00:05:53=38,687 
108 BELPeter RoesBELLotto-Superclub05:17:56  +  00:05:53=38,687 
109 BELWillem Van EyndeBELLotto-Superclub05:17:56  +  00:05:53=38,687 
110 BELJohan MuseeuwBELLotto-Superclub05:17:56  +  00:05:53=38,687 
111 SUIMauro GianettiCHEHelvetia-La Suisse05:18:19  +  00:06:16=38,641 
112 NEDToine PoelsNLDBuckler05:18:33  +  00:06:30=38,612 
113 NEDAdri Van Der PoelCHEWeinmann-La Suisse-S.M.M. Uste..05:18:42  +  00:06:39=38,594 
114 FRAJean-Claude LeclercqCHEHelvetia-La Suisse05:18:48  +  00:06:45=38,582 
115 FRAFrédéric BrunFRAR.M.O.-Mavic-Liberia05:18:48  +  00:06:45=38,582 
116 COLJuan CastilloCOLRyalcao-Postobon05:18:48  +  00:06:45=38,582 
117 USABob RollUSA7-Eleven-Hoonved05:18:54  +  00:06:51=38,570 
118 USARonald KiefelUSA7-Eleven-Hoonved05:19:09  +  00:07:06=38,540 
119 USADavis PhinneyUSA7-Eleven-Hoonved05:19:09  +  00:07:06=38,540 
120 NEDJelle NijdamNLDBuckler05:19:26  +  00:07:23=38,506 
121 NEDFrans MaassenNLDBuckler05:19:26  +  00:07:23=38,506 
122 DDRJan SchurITAChateau d'Ax05:19:26  +  00:07:23=38,506 
123 BELWilfried PeetersBELHistor-Sigma05:19:48  +  00:07:45=38,462 
124 ITAGiuseppe SaronniESPKelme-Ibexpress05:20:06  +  00:08:03=38,425 
125 NEDMaarten DucrotNLDTVM05:20:11  +  00:08:08=38,415 
126 BELMichel VermoteFRAR.M.O.-Mavic-Liberia05:20:40  +  00:08:37=38,358 
127 BELJan GoessensCHEWeinmann-La Suisse-S.M.M. Uste..05:20:40  +  00:08:37=38,358 
128 ITAAdriano BaffiITAAriostea05:20:40  +  00:08:37=38,358 
129 BELCarlo BomansCHEWeinmann-La Suisse-S.M.M. Uste..05:20:40  +  00:08:37=38,358 
130 BELPeter De ClercqBELLotto-Superclub05:20:40  +  00:08:37=38,358 
131 FRAThierry MarieFRACastorama-Raleigh05:20:40  +  00:08:37=38,358 
132 NEDPatrick TolhoekNLDBuckler05:20:40  +  00:08:37=38,358 
133 FRAVincent BarteauFRACastorama-Raleigh05:20:40  +  00:08:37=38,358 
134 ITAGuido BontempiITACarrera Jeans-Vagabond05:20:40  +  00:08:37=38,358 
135 DDROlaf LudwigNLDPanasonic-Sportlife05:20:40  +  00:08:37=38,358 
136 NEDGert JakobsNLDPDM-Concorde05:20:40  +  00:08:37=38,358 
137 NEDJean-Paul van PoppelNLDPanasonic-Sportlife05:20:40  +  00:08:37=38,358 
138 ENGSean YatesUSA7-Eleven-Hoonved05:20:40  +  00:08:37=38,358 
139 ESPHerminio ZabalaESPO.N.C.E.05:20:57  +  00:08:54=38,324 
140 ESPMelchor MauriESPO.N.C.E.05:20:57  +  00:08:54=38,324 
141 ITAMauro-Antonio SantaromitaITAChateau d'Ax05:21:06  +  00:09:03=38,306 
142 NEDJan SiemonsNLDTVM05:21:06  +  00:09:03=38,306 
143 NEDEdwig Van HooydonckNLDBuckler05:21:06  +  00:09:03=38,306 
144 NEDGerrit SolleveldNLDBuckler05:21:06  +  00:09:03=38,306 
145 URSIvan IvanovITAAlfa Lum05:21:22  +  00:09:19=38,274 
146 ESPMarino MonjeESPBanesto05:21:24  +  00:09:21=38,270 
147 USANorman AlvisUSA7-Eleven-Hoonved05:21:56  +  00:09:53=38,207 
148 SUIErich MächlerITACarrera Jeans-Vagabond05:21:56  +  00:09:53=38,207 
149 ESPJesús RosadoESPKelme-Ibexpress05:21:56  +  00:09:53=38,207 
150 ITAGiovanni FidanzaITAChateau d'Ax05:22:56  +  00:10:53=38,088 
151 ITAMassimo GhirottoITACarrera Jeans-Vagabond05:22:56  +  00:10:53=38,088 
152 URSNikolai GolovatenkoITAAlfa Lum05:22:56  +  00:10:53=38,088 
153 ITAGiancarlo PeriniITACarrera Jeans-Vagabond05:22:56  +  00:10:53=38,088 
154 ITAGuiseppe CalcaterraITAChateau d'Ax05:23:09  +  00:11:06=38,063 
155 BELHendrik RedantBELLotto-Superclub05:23:09  +  00:11:06=38,063 
156 ESPAntonio EspejoESPKelme-Ibexpress05:23:09  +  00:11:06=38,063 
157 URSVasily ZhdanovITAAlfa Lum05:38:15  +  00:26:12=36,364 
158 URSAsiat SaitovITAAlfa Lum05:38:15  +  00:26:12=36,364 
159 NEDJos Van AertNLDPDM-Concorde05:44:05  +  00:32:02=35,747 
160 ITARodolfo MassiITAAriostea05:44:05  +  00:32:02=35,747 
161 SUIGuido WinterbergCHEHelvetia-La Suisse05:44:49  +  00:32:46=35,671 
162 BELPaul HaghedoorenBELHistor-Sigma05:45:39  +  00:33:36=35,585 
163 GERAndreas KappesNLDToshiba05:47:32  +  00:35:29=35,392 
164 ENGMaximilian SciandriITACarrera Jeans-Vagabond05:50:03  +  00:38:00=35,138 

Withdrawls: 4
 
Rider
Team
Reason
13  FRAChristophe LavainneFRACastorama-RaleighDid not finish
49  DENJohnny WeltzESPO.N.C.E.Did not finish
111  SUIPascal RichardCHEHelvetia-La SuisseDid not finish
176  ITAFlavio GiupponiITACarrera Jeans-VagabondDid not finish

Todays birthdays.

1877  Antoine Perrichon
1878  Auguste Berthault
1911  Théo Herckenrath
1924  Carlo Lafranchi
1931  Armand Di Caro
1937  Jean-Claude Lebaube
1951  Giovanni Battaglin
1961  Pascal Jules
1962  Jean-Claude Leclercq
1976  Janek Tombak
1978  Francisco Pérez
1983  Dries Devenyns




Visits: